Time;durP1;ratioP1;P1;durP2;ratioP2;P2;SDS_P1;SDS_P2;PMS_P1;PMS_P2;Temp;Humidity;BMP_temperature;BMP_pressure;BME280_temperature;BME280_humidity;BME280_pressure;Samples;Min_cycle;Max_cycle;Signal;HPM_P1;HPM_P2
2023/04/03 00:01:55;;;;;;;9.87;2.03;;;;;;;-145.18;100.00;60484.78;5021918;28;20104;-69
2023/04/03 00:04:21;;;;;;;9.63;2.17;;;;;;;-145.18;100.00;60484.78;5019421;28;20032;-69
2023/04/03 00:06:46;;;;;;;9.20;2.57;;;;;;;-145.18;100.00;60484.78;5013896;28;20022;-69
2023/04/03 00:09:12;;;;;;;4.17;1.60;;;;;;;-145.18;100.00;60484.78;5013986;28;20033;-69
2023/04/03 00:11:38;;;;;;;9.63;2.37;;;;;;;-145.18;100.00;60484.78;5013245;28;20026;-70
2023/04/03 00:14:03;;;;;;;5.83;1.60;;;;;;;-145.18;100.00;60484.78;5014583;28;20108;-69
2023/04/03 00:16:29;;;;;;;9.80;2.37;;;;;;;-145.18;100.00;60484.78;5013074;28;20116;-69
2023/04/03 00:18:54;;;;;;;6.33;2.03;;;;;;;-145.18;100.00;60484.78;5013574;28;20029;-69
2023/04/03 00:21:20;;;;;;;6.50;1.90;;;;;;;-145.18;100.00;60484.78;5015196;28;20509;-69
2023/04/03 00:23:45;;;;;;;9.07;1.90;;;;;;;-145.18;100.00;60484.78;5013765;28;20034;-70
2023/04/03 00:26:11;;;;;;;6.07;2.10;;;;;;;-145.18;100.00;60484.78;5013401;28;20104;-69
2023/04/03 00:28:36;;;;;;;8.70;1.90;;;;;;;-145.18;100.00;60484.78;5013140;28;20043;-69
2023/04/03 00:31:03;;;;;;;5.33;2.00;;;;;;;-145.18;100.00;60484.78;5013137;28;20072;-69
2023/04/03 00:33:28;;;;;;;8.63;2.10;;;;;;;-145.18;100.00;60484.78;5016753;28;20042;-69
2023/04/03 00:35:54;;;;;;;8.93;2.30;;;;;;;-145.18;100.00;60484.78;5012197;28;20087;-69
2023/04/03 00:38:19;;;;;;;5.47;1.70;;;;;;;-145.18;100.00;60484.78;5012416;28;20034;-69
2023/04/03 00:40:47;;;;;;;9.43;2.20;;;;;;;-145.18;100.00;60484.78;5012470;28;20030;-69
2023/04/03 00:43:19;;;;;;;6.50;2.17;;;;;;;-145.18;100.00;60484.78;5013000;28;20030;-69
2023/04/03 00:45:46;;;;;;;;;;;;;;;-145.18;100.00;60484.78;5012934;28;20024;-69
2023/04/03 00:48:16;;;;;;;5.30;2.10;;;;;;;-145.18;100.00;60484.78;5015270;28;19924;-69
2023/04/03 00:50:44;;;;;;;7.40;2.05;;;;;;;-145.18;100.00;60484.78;5017060;28;20022;-69
2023/04/03 00:53:16;;;;;;;7.27;2.23;;;;;;;-145.18;100.00;60484.78;5012627;28;20037;-69
2023/04/03 00:55:42;;;;;;;5.53;2.00;;;;;;;-145.18;100.00;60484.78;5012126;28;20032;-69
2023/04/03 00:58:09;;;;;;;4.90;1.77;;;;;;;-145.18;100.00;60484.78;5012450;28;20033;-69
2023/04/03 01:03:58;;;;;;;6.43;2.38;;;;;;;-145.18;100.00;60484.78;5026111;23;20099;-71
2023/04/03 01:06:30;;;;;;;6.77;2.23;;;;;;;-145.18;100.00;60484.78;5020695;28;20025;-71
2023/04/03 01:08:56;;;;;;;8.57;2.40;;;;;;;-145.18;100.00;60484.78;5029750;28;20433;-71
2023/04/03 01:11:22;;;;;;;9.10;2.27;;;;;;;-145.18;100.00;60484.78;5028337;28;20068;-71
2023/04/03 01:13:48;;;;;;;8.80;2.00;;;;;;;-145.18;100.00;60484.78;5026723;28;20037;-71
2023/04/03 01:16:14;;;;;;;10.77;2.20;;;;;;;-145.18;100.00;60484.78;5021124;28;20096;-71
2023/04/03 01:18:40;;;;;;;9.77;2.47;;;;;;;-145.18;100.00;60484.78;5023475;28;20459;-72
2023/04/03 01:21:58;;;;;;;6.60;2.20;;;;;;;-145.18;100.00;60484.78;5026472;28;20366;-72
2023/04/03 01:24:38;;;;;;;9.43;2.37;;;;;;;-145.18;100.00;60484.78;4993792;28;20061;-71
2023/04/03 01:27:05;;;;;;;8.53;2.60;;;;;;;-145.18;100.00;60484.78;5020314;28;20084;-71
2023/04/03 01:29:31;;;;;;;7.17;2.20;;;;;;;-145.18;100.00;60484.78;5020350;28;20030;-71
2023/04/03 01:31:59;;;;;;;8.90;2.47;;;;;;;-145.18;100.00;60484.78;5027120;28;20029;-72
2023/04/03 01:34:26;;;;;;;9.40;2.20;;;;;;;-145.18;100.00;60484.78;5024793;28;20556;-71
2023/04/03 01:36:52;;;;;;;6.43;2.07;;;;;;;-145.18;100.00;60484.78;5023508;28;20029;-71
2023/04/03 01:39:19;;;;;;;8.03;2.20;;;;;;;-145.18;100.00;60484.78;5024857;28;20033;-71
2023/04/03 01:41:44;;;;;;;13.37;2.60;;;;;;;-145.18;100.00;60484.78;5025932;28;20120;-72
2023/04/03 01:44:10;;;;;;;8.60;2.70;;;;;;;-145.18;100.00;60484.78;5025672;28;20025;-71
2023/04/03 01:46:37;;;;;;;8.73;2.10;;;;;;;-145.18;100.00;60484.78;5031117;28;20370;-71
2023/04/03 01:49:03;;;;;;;7.07;2.00;;;;;;;-145.18;100.00;60484.78;5032742;28;20049;-71
2023/04/03 01:51:29;;;;;;;11.13;2.37;;;;;;;-145.18;100.00;60484.78;5022928;28;20041;-72
2023/04/03 01:53:54;;;;;;;8.07;2.57;;;;;;;-145.18;100.00;60484.78;5024729;28;20025;-72
2023/04/03 01:56:20;;;;;;;10.50;2.60;;;;;;;-145.18;100.00;60484.78;5018424;28;20466;-72
2023/04/03 01:58:45;;;;;;;7.13;2.20;;;;;;;-145.18;100.00;60484.78;5032211;28;20117;-72
2023/04/03 02:01:11;;;;;;;6.93;2.00;;;;;;;-145.18;100.00;60484.78;5034463;28;20025;-72
2023/04/03 02:03:36;;;;;;;8.17;2.27;;;;;;;-145.18;100.00;60484.78;5026725;28;20255;-72
2023/04/03 02:06:02;;;;;;;6.13;2.00;;;;;;;-145.18;100.00;60484.78;5017980;28;20424;-72
2023/04/03 02:08:27;;;;;;;4.60;1.97;;;;;;;-145.18;100.00;60484.78;5014504;28;20059;-72
2023/04/03 02:10:53;;;;;;;8.23;2.10;;;;;;;-145.18;100.00;60484.78;5016020;28;20391;-72
2023/04/03 02:13:19;;;;;;;5.97;1.50;;;;;;;-145.18;100.00;60484.78;5024810;28;20022;-72
2023/04/03 02:15:45;;;;;;;8.07;2.20;;;;;;;-145.18;100.00;60484.78;5015019;28;20030;-72
2023/04/03 02:18:11;;;;;;;7.63;2.23;;;;;;;-145.18;100.00;60484.78;5015830;28;20028;-72
2023/04/03 02:20:37;;;;;;;8.23;2.20;;;;;;;-145.18;100.00;60484.78;5015645;28;20017;-72
2023/04/03 02:23:03;;;;;;;7.27;2.10;;;;;;;-145.18;100.00;60484.78;5030611;28;20044;-72
2023/04/03 02:25:31;;;;;;;4.53;1.70;;;;;;;-145.18;100.00;60484.78;5015610;28;20022;-72
2023/04/03 02:27:56;;;;;;;8.77;2.10;;;;;;;-145.18;100.00;60484.78;5015841;28;20029;-72
2023/04/03 02:30:22;;;;;;;7.53;1.93;;;;;;;-145.18;100.00;60484.78;5021974;28;20385;-72
2023/04/03 02:32:47;;;;;;;9.93;2.27;;;;;;;-145.18;100.00;60484.78;5024001;28;20029;-72
2023/04/03 02:35:13;;;;;;;7.47;2.33;;;;;;;-145.18;100.00;60484.78;5018140;28;20425;-72
2023/04/03 02:37:39;;;;;;;7.00;2.40;;;;;;;-145.18;100.00;60484.78;5015336;28;20030;-72
2023/04/03 02:40:06;;;;;;;6.40;2.67;;;;;;;-145.18;100.00;60484.78;5015740;28;20482;-70
2023/04/03 02:42:32;;;;;;;9.87;2.80;;;;;;;-145.18;100.00;60484.78;5016081;28;20105;-69
2023/04/03 02:44:57;;;;;;;11.23;2.63;;;;;;;-145.18;100.00;60484.78;5021486;28;20106;-70
2023/04/03 02:47:23;;;;;;;10.53;2.07;;;;;;;-145.18;100.00;60484.78;5013490;28;20030;-70
2023/04/03 02:49:48;;;;;;;11.03;3.37;;;;;;;-145.18;100.00;60484.78;5015656;28;20104;-69
2023/04/03 02:52:14;;;;;;;9.13;2.43;;;;;;;-145.18;100.00;60484.78;5012517;28;20026;-69
2023/04/03 02:54:40;;;;;;;6.23;2.20;;;;;;;-145.18;100.00;60484.78;5013310;28;20398;-70
2023/04/03 02:57:08;;;;;;;7.43;2.03;;;;;;;-145.18;100.00;60484.78;5013546;28;20026;-69
2023/04/03 02:59:35;;;;;;;9.27;2.00;;;;;;;-145.18;100.00;60484.78;5012835;28;20045;-69
2023/04/03 03:02:00;;;;;;;10.73;2.50;;;;;;;-145.18;100.00;60484.78;5012767;28;20453;-70
2023/04/03 03:04:26;;;;;;;8.80;2.00;;;;;;;-145.18;100.00;60484.78;5012139;28;20033;-70
2023/04/03 03:06:52;;;;;;;8.17;2.03;;;;;;;-145.18;100.00;60484.78;5013464;28;20034;-70
2023/04/03 03:09:17;;;;;;;6.30;2.10;;;;;;;-145.18;100.00;60484.78;5013979;28;20030;-69
2023/04/03 03:11:43;;;;;;;7.53;1.90;;;;;;;-145.18;100.00;60484.78;5013039;28;20037;-69
2023/04/03 03:14:08;;;;;;;6.03;1.87;;;;;;;-145.18;100.00;60484.78;5014974;28;20429;-69
2023/04/03 03:16:34;;;;;;;11.77;3.23;;;;;;;-145.18;100.00;60484.78;5014003;28;20414;-70
2023/04/03 03:18:59;;;;;;;8.97;2.10;;;;;;;-145.18;100.00;60484.78;5012764;28;20041;-69
2023/04/03 03:21:25;;;;;;;12.53;2.40;;;;;;;-145.18;100.00;60484.78;5012960;28;20386;-69
2023/04/03 03:23:51;;;;;;;7.93;2.23;;;;;;;-145.18;100.00;60484.78;5012252;28;20030;-69
2023/04/03 03:26:16;;;;;;;9.07;3.10;;;;;;;-145.18;100.00;60484.78;5013648;28;20331;-69
2023/04/03 03:28:42;;;;;;;6.00;2.07;;;;;;;-145.18;100.00;60484.78;5013425;28;20066;-69
2023/04/03 03:31:08;;;;;;;9.03;2.87;;;;;;;-145.18;100.00;60484.78;5013940;28;20363;-69
2023/04/03 03:33:34;;;;;;;8.73;2.17;;;;;;;-145.18;100.00;60484.78;5013760;28;20073;-70
2023/04/03 03:36:00;;;;;;;10.07;2.43;;;;;;;-145.18;100.00;60484.78;5013297;28;20308;-70
2023/04/03 03:38:26;;;;;;;7.60;2.13;;;;;;;-145.18;100.00;60484.78;5013484;28;20022;-70
2023/04/03 03:40:51;;;;;;;8.77;1.93;;;;;;;-145.18;100.00;60484.78;5013362;28;20433;-69
2023/04/03 03:43:17;;;;;;;10.00;2.80;;;;;;;-145.18;100.00;60484.78;5019612;28;20044;-69
2023/04/03 03:45:44;;;;;;;10.10;2.43;;;;;;;-145.18;100.00;60484.78;5013860;28;20026;-69
2023/04/03 03:48:09;;;;;;;13.07;2.63;;;;;;;-145.18;100.00;60484.78;5012810;28;20030;-69
2023/04/03 03:50:35;;;;;;;8.17;2.40;;;;;;;-145.18;100.00;60484.78;5014107;28;20291;-70
2023/04/03 03:53:01;;;;;;;8.27;2.70;;;;;;;-145.18;100.00;60484.78;5012883;28;20021;-71
2023/04/03 03:55:26;;;;;;;12.00;2.37;;;;;;;-145.18;100.00;60484.78;5012789;28;20030;-69
2023/04/03 03:57:52;;;;;;;13.17;2.40;;;;;;;-145.18;100.00;60484.78;5016030;28;20390;-71
2023/04/03 04:00:18;;;;;;;9.03;2.73;;;;;;;-145.18;100.00;60484.78;5011732;28;20022;-69
2023/04/03 04:02:44;;;;;;;13.63;2.30;;;;;;;-145.18;100.00;60484.78;5020491;28;20037;-69
2023/04/03 04:05:10;;;;;;;9.03;2.23;;;;;;;-145.18;100.00;60484.78;5011639;28;20026;-69
2023/04/03 04:07:35;;;;;;;7.60;2.30;;;;;;;-145.18;100.00;60484.78;5012259;28;20532;-70
2023/04/03 04:10:01;;;;;;;7.53;2.23;;;;;;;-145.18;100.00;60484.78;5010049;28;20056;-69
2023/04/03 04:12:27;;;;;;;7.67;2.40;;;;;;;-145.18;100.00;60484.78;5016973;28;20422;-69
2023/04/03 04:14:52;;;;;;;8.17;2.30;;;;;;;-145.18;100.00;60484.78;5011503;28;20432;-70
2023/04/03 04:17:17;;;;;;;10.23;2.50;;;;;;;-145.18;100.00;60484.78;5011127;28;20092;-70
2023/04/03 04:19:43;;;;;;;8.33;2.67;;;;;;;-145.18;100.00;60484.78;5012119;28;20029;-69
2023/04/03 04:22:08;;;;;;;11.10;2.77;;;;;;;-145.18;100.00;60484.78;5013400;28;20475;-69
2023/04/03 04:24:34;;;;;;;8.07;2.30;;;;;;;-145.18;100.00;60484.78;5015182;28;20467;-70
2023/04/03 04:27:00;;;;;;;9.97;2.30;;;;;;;-145.18;100.00;60484.78;5012162;28;20053;-70
2023/04/03 04:29:25;;;;;;;15.27;2.50;;;;;;;-145.18;100.00;60484.78;5011020;28;20357;-69
2023/04/03 04:31:51;;;;;;;8.83;2.80;;;;;;;-145.18;100.00;60484.78;5011082;28;20451;-69
2023/04/03 04:34:16;;;;;;;13.13;2.60;;;;;;;-145.18;100.00;60484.78;5011373;28;20502;-69
2023/04/03 04:36:42;;;;;;;10.47;2.93;;;;;;;-145.18;100.00;60484.78;5012792;28;20497;-70
2023/04/03 04:39:08;;;;;;;12.47;2.97;;;;;;;-145.18;100.00;60484.78;5011618;28;20057;-70
2023/04/03 04:41:34;;;;;;;9.90;2.30;;;;;;;-145.18;100.00;60484.78;5012061;28;20036;-69
2023/04/03 04:44:00;;;;;;;17.53;2.70;;;;;;;-145.18;100.00;60484.78;5012396;28;20033;-69
2023/04/03 04:46:26;;;;;;;13.33;3.10;;;;;;;-145.18;100.00;60484.78;5019571;28;20273;-69
2023/04/03 04:48:51;;;;;;;10.80;3.10;;;;;;;-145.18;100.00;60484.78;5020203;28;20284;-69
2023/04/03 04:51:17;;;;;;;15.23;3.77;;;;;;;-145.18;100.00;60484.78;5012417;28;20112;-70
2023/04/03 04:53:42;;;;;;;12.30;2.90;;;;;;;-145.18;100.00;60484.78;5011475;28;20040;-70
2023/04/03 04:56:08;;;;;;;10.00;3.00;;;;;;;-145.18;100.00;60484.78;5011382;28;20049;-70
2023/04/03 04:58:34;;;;;;;10.17;2.90;;;;;;;-145.18;100.00;60484.78;5012033;28;20022;-69
2023/04/03 05:01:04;;;;;;;8.90;2.70;;;;;;;-145.18;100.00;60484.78;5011839;28;20273;-70
2023/04/03 05:03:30;;;;;;;8.00;2.60;;;;;;;-145.18;100.00;60484.78;5010313;28;20133;-70
2023/04/03 05:05:55;;;;;;;11.93;2.97;;;;;;;-145.18;100.00;60484.78;5011307;28;20284;-69
2023/04/03 05:08:21;;;;;;;11.17;2.67;;;;;;;-145.18;100.00;60484.78;5019503;28;20268;-69
2023/04/03 05:10:47;;;;;;;8.10;2.70;;;;;;;-145.18;100.00;60484.78;5015288;28;20061;-70
2023/04/03 05:13:13;;;;;;;9.77;2.70;;;;;;;-145.18;100.00;60484.78;5012073;28;20061;-70
2023/04/03 05:15:38;;;;;;;13.57;3.20;;;;;;;-145.18;100.00;60484.78;5013423;28;20116;-69
2023/04/03 05:18:04;;;;;;;12.23;3.57;;;;;;;-145.18;100.00;60484.78;5012704;28;20702;-69
2023/04/03 05:20:30;;;;;;;9.77;2.47;;;;;;;-145.18;100.00;60484.78;5011642;28;20026;-70
2023/04/03 05:22:56;;;;;;;6.87;2.57;;;;;;;-145.18;100.00;60484.78;5011385;28;20041;-70
2023/04/03 05:25:21;;;;;;;11.67;3.07;;;;;;;-145.18;100.00;60484.78;5009622;28;20284;-69
2023/04/03 05:27:47;;;;;;;10.20;2.47;;;;;;;-145.18;100.00;60484.78;5010882;28;20045;-69
2023/04/03 05:30:13;;;;;;;9.37;2.50;;;;;;;-145.18;100.00;60484.78;5026335;28;20045;-70
2023/04/03 05:32:39;;;;;;;7.97;2.40;;;;;;;-145.18;100.00;60484.78;5011284;28;20030;-70
2023/04/03 05:35:07;;;;;;;6.00;2.33;;;;;;;-145.18;100.00;60484.78;5011731;28;20030;-69
2023/04/03 05:37:33;;;;;;;8.47;2.53;;;;;;;-145.18;100.00;60484.78;5009542;28;20463;-70
2023/04/03 05:39:59;;;;;;;9.13;2.20;;;;;;;-145.18;100.00;60484.78;5008212;28;20041;-70
2023/04/03 05:42:24;;;;;;;9.30;2.30;;;;;;;-145.18;100.00;60484.78;5008740;28;20390;-69
2023/04/03 05:44:50;;;;;;;8.93;2.80;;;;;;;-145.18;100.00;60484.78;5003958;28;20513;-69
2023/04/03 05:47:16;;;;;;;7.13;1.70;;;;;;;-145.18;100.00;60484.78;5019613;28;20021;-69
2023/04/03 05:49:42;;;;;;;9.37;2.37;;;;;;;-145.18;100.00;60484.78;5031192;28;20025;-69
2023/04/03 05:52:21;;;;;;;8.10;2.20;;;;;;;-145.18;100.00;60484.78;5029649;28;20037;-69
2023/04/03 05:54:48;;;;;;;10.93;2.40;;;;;;;-145.18;100.00;60484.78;5030445;28;20393;-70
2023/04/03 05:57:14;;;;;;;6.70;2.20;;;;;;;-145.18;100.00;60484.78;5030190;28;20148;-69
2023/04/03 05:59:40;;;;;;;9.03;2.23;;;;;;;-145.18;100.00;60484.78;5030906;28;20075;-71
2023/04/03 06:02:06;;;;;;;8.03;2.20;;;;;;;-145.18;100.00;60484.78;5013762;28;20033;-69
2023/04/03 06:04:31;;;;;;;7.67;2.40;;;;;;;-145.18;100.00;60484.78;5027785;28;20117;-70
2023/04/03 06:06:58;;;;;;;9.13;2.20;;;;;;;-145.18;100.00;60484.78;5012923;28;20104;-69
2023/04/03 06:09:26;;;;;;;7.13;2.73;;;;;;;-145.18;100.00;60484.78;5012171;28;20040;-70
2023/04/03 06:11:52;;;;;;;7.53;1.53;;;;;;;-145.18;100.00;60484.78;5012405;28;20378;-70
2023/04/03 06:14:18;;;;;;;6.17;1.70;;;;;;;-145.18;100.00;60484.78;5012248;28;20018;-69
2023/04/03 06:16:44;;;;;;;8.07;1.97;;;;;;;-145.18;100.00;60484.78;5012376;28;20025;-70
2023/04/03 06:19:11;;;;;;;7.23;1.97;;;;;;;-145.18;100.00;60484.78;5011900;28;20040;-70
2023/04/03 06:21:37;;;;;;;5.47;1.90;;;;;;;-145.18;100.00;60484.78;5012324;28;20494;-69
2023/04/03 06:24:04;;;;;;;7.47;1.67;;;;;;;-145.18;100.00;60484.78;5012121;28;20056;-69
2023/04/03 06:26:29;;;;;;;4.60;1.40;;;;;;;-145.18;100.00;60484.78;5008287;28;20486;-69
2023/04/03 06:28:55;;;;;;;8.60;1.60;;;;;;;-145.18;100.00;60484.78;5012225;28;20084;-70
2023/04/03 06:31:21;;;;;;;6.17;2.07;;;;;;;-145.18;100.00;60484.78;5012029;28;20454;-70
2023/04/03 06:33:47;;;;;;;4.13;1.70;;;;;;;-145.18;100.00;60484.78;5017695;28;20048;-70
2023/04/03 06:36:12;;;;;;;6.13;1.40;;;;;;;-145.18;100.00;60484.78;5020627;28;20037;-70
2023/04/03 06:38:38;;;;;;;7.27;2.03;;;;;;;-145.18;100.00;60484.78;5015815;28;20022;-70
2023/04/03 06:41:04;;;;;;;8.00;1.80;;;;;;;-145.18;100.00;60484.78;5015769;28;20018;-70
2023/04/03 06:43:31;;;;;;;3.83;1.23;;;;;;;-145.18;100.00;60484.78;5015939;28;20164;-70
2023/04/03 06:45:56;;;;;;;7.00;1.60;;;;;;;-145.18;100.00;60484.78;5014998;28;20116;-70
2023/04/03 06:48:22;;;;;;;10.03;1.83;;;;;;;-145.18;100.00;60484.78;5015746;28;20049;-70
2023/04/03 06:50:47;;;;;;;5.87;1.50;;;;;;;-145.18;100.00;60484.78;5015665;28;20029;-70
2023/04/03 06:53:13;;;;;;;7.77;1.90;;;;;;;-145.18;100.00;60484.78;5015434;28;20028;-69
2023/04/03 06:55:39;;;;;;;5.87;1.50;;;;;;;-145.18;100.00;60484.78;5016139;28;20032;-68
2023/04/03 06:58:04;;;;;;;6.57;1.57;;;;;;;-145.18;100.00;60484.78;5015423;28;20478;-69
2023/04/03 07:00:30;;;;;;;5.50;1.23;;;;;;;-145.18;100.00;60484.78;5021516;28;20030;-68
2023/04/03 07:02:57;;;;;;;5.03;1.17;;;;;;;-145.18;100.00;60484.78;5020678;28;20433;-69
2023/04/03 07:05:23;;;;;;;3.63;1.10;;;;;;;-145.18;100.00;60484.78;5014269;28;20018;-69
2023/04/03 07:07:49;;;;;;;4.40;1.20;;;;;;;-145.18;100.00;60484.78;5019147;28;20505;-69
2023/04/03 07:10:15;;;;;;;7.90;1.67;;;;;;;-145.18;100.00;60484.78;5014955;28;20033;-68
2023/04/03 07:12:41;;;;;;;9.50;2.50;;;;;;;-145.18;100.00;60484.78;5015120;28;20033;-68
2023/04/03 07:15:07;;;;;;;2.97;1.00;;;;;;;-145.18;100.00;60484.78;5015321;28;20037;-69
2023/04/03 07:17:32;;;;;;;5.77;1.27;;;;;;;-145.18;100.00;60484.78;5014867;28;20026;-68
2023/04/03 07:19:58;;;;;;;5.30;1.40;;;;;;;-145.18;100.00;60484.78;5015230;28;20025;-68
2023/04/03 07:22:23;;;;;;;7.07;1.47;;;;;;;-145.18;100.00;60484.78;5015023;28;20029;-68
2023/04/03 07:24:49;;;;;;;5.70;1.40;;;;;;;-145.18;100.00;60484.78;5014980;28;20400;-68
2023/04/03 07:27:14;;;;;;;7.57;1.60;;;;;;;-145.18;100.00;60484.78;5014857;28;20022;-68
2023/04/03 07:29:40;;;;;;;5.90;1.30;;;;;;;-145.18;100.00;60484.78;5014847;28;20022;-68
2023/04/03 07:32:06;;;;;;;5.80;1.37;;;;;;;-145.18;100.00;60484.78;5010606;28;20022;-68
2023/04/03 07:34:32;;;;;;;5.73;1.33;;;;;;;-145.18;100.00;60484.78;5014859;28;20025;-68
2023/04/03 07:36:58;;;;;;;2.93;0.90;;;;;;;-145.18;100.00;60484.78;5010773;28;20029;-68
2023/04/03 07:39:24;;;;;;;4.33;1.30;;;;;;;-145.18;100.00;60484.78;5014508;28;20030;-69
2023/04/03 07:41:50;;;;;;;4.83;1.23;;;;;;;-145.18;100.00;60484.78;5014591;28;20106;-68
2023/04/03 07:44:15;;;;;;;3.93;1.40;;;;;;;-145.18;100.00;60484.78;5014208;28;20029;-69
2023/04/03 07:46:42;;;;;;;4.40;1.37;;;;;;;-145.18;100.00;60484.78;5014525;28;20465;-69
2023/04/03 07:49:07;;;;;;;6.13;1.37;;;;;;;-145.18;100.00;60484.78;5032999;28;20378;-69
2023/04/03 07:51:33;;;;;;;5.67;1.30;;;;;;;-145.18;100.00;60484.78;5032930;28;20044;-70
2023/04/03 07:53:59;;;;;;;6.33;1.30;;;;;;;-145.18;100.00;60484.78;5032754;28;20045;-69
2023/04/03 07:56:25;;;;;;;2.07;0.70;;;;;;;-145.18;100.00;60484.78;5017763;28;20037;-69
2023/04/03 07:58:50;;;;;;;2.07;0.93;;;;;;;-145.18;100.00;60484.78;5014229;28;20029;-69
2023/04/03 08:01:16;;;;;;;3.03;0.90;;;;;;;-145.18;100.00;60484.78;5014815;28;20021;-70
2023/04/03 08:03:41;;;;;;;2.83;0.90;;;;;;;-145.18;100.00;60484.78;5014237;28;20477;-69
2023/04/03 08:06:08;;;;;;;2.03;0.90;;;;;;;-145.18;100.00;60484.78;5018824;28;20397;-69
2023/04/03 08:08:35;;;;;;;3.77;0.70;;;;;;;-145.18;100.00;60484.78;5032603;28;20037;-69
2023/04/03 08:11:02;;;;;;;3.20;1.00;;;;;;;-145.18;100.00;60484.78;5032808;28;20536;-69
2023/04/03 08:13:28;;;;;;;4.57;1.07;;;;;;;-145.18;100.00;60484.78;5021591;28;20374;-69
2023/04/03 08:15:56;;;;;;;3.10;0.90;;;;;;;-145.18;100.00;60484.78;5014060;28;20034;-69
2023/04/03 08:18:24;;;;;;;5.10;1.23;;;;;;;-145.18;100.00;60484.78;5013653;28;20092;-69
2023/04/03 08:20:50;;;;;;;3.83;0.90;;;;;;;-145.18;100.00;60484.78;5013867;28;20486;-68
2023/04/03 08:23:16;;;;;;;4.87;0.90;;;;;;;-145.18;100.00;60484.78;5013736;28;20069;-68
2023/04/03 08:25:42;;;;;;;3.47;1.27;;;;;;;-145.18;100.00;60484.78;5013990;28;20057;-69
2023/04/03 08:28:11;;;;;;;4.47;1.00;;;;;;;-145.18;100.00;60484.78;5013720;28;20026;-69
2023/04/03 08:30:42;;;;;;;4.30;0.93;;;;;;;-145.18;100.00;60484.78;5013564;28;20025;-69
2023/04/03 08:33:08;;;;;;;4.40;1.00;;;;;;;-145.18;100.00;60484.78;5013531;28;20462;-69
2023/04/03 08:35:37;;;;;;;6.67;1.10;;;;;;;-145.18;100.00;60484.78;5013581;28;20037;-69
2023/04/03 08:38:02;;;;;;;6.60;1.10;;;;;;;-145.18;100.00;60484.78;5013275;28;20363;-69
2023/04/03 08:40:28;;;;;;;2.23;0.70;;;;;;;-145.18;100.00;60484.78;5013805;28;20108;-69
2023/04/03 08:43:36;;;;;;;3.93;0.80;;;;;;;-145.18;100.00;60484.78;5010865;28;20453;-69
2023/04/03 08:46:05;;;;;;;4.23;0.73;;;;;;;-145.18;100.00;60484.78;4975326;28;20449;-69
2023/04/03 08:48:35;;;;;;;3.50;0.80;;;;;;;-145.18;100.00;60484.78;4991598;28;20034;-69
2023/04/03 08:51:11;;;;;;;2.03;0.63;;;;;;;-145.18;100.00;60484.78;4989685;28;20114;-68
2023/04/03 08:53:42;;;;;;;2.23;0.70;;;;;;;-145.18;100.00;60484.78;4991414;28;20080;-70
2023/04/03 08:56:13;;;;;;;2.90;0.90;;;;;;;-145.18;100.00;60484.78;4990823;28;20034;-69
2023/04/03 08:58:55;;;;;;;2.27;0.60;;;;;;;-145.18;100.00;60484.78;4991344;28;20437;-69
2023/04/03 09:01:27;;;;;;;2.10;0.73;;;;;;;-145.18;100.00;60484.78;4992209;28;20057;-69
2023/04/03 09:03:53;;;;;;;3.45;0.90;;;;;;;-145.18;100.00;60484.78;4991337;28;20050;-69
2023/04/03 09:06:21;;;;;;;1.70;0.50;;;;;;;-145.18;100.00;60484.78;4991318;28;20044;-69
2023/04/03 09:09:35;;;;;;;2.47;0.80;;;;;;;-145.18;100.00;60484.78;4989252;28;20031;-69
2023/04/03 09:12:23;;;;;;;0.97;0.53;;;;;;;-145.18;100.00;60484.78;4948541;29;20035;-69
2023/04/03 09:15:20;;;;;;;2.17;0.60;;;;;;;-145.18;100.00;60484.78;4951080;29;20031;-69
2023/04/03 09:18:14;;;;;;;3.93;1.30;;;;;;;-145.18;100.00;60484.78;4951100;29;20047;-69
2023/04/03 09:21:13;;;;;;;3.80;0.77;;;;;;;-145.18;100.00;60484.78;4945774;29;20488;-69
2023/04/03 09:23:50;;;;;;;1.90;0.60;;;;;;;-145.18;100.00;60484.78;4948854;28;20051;-69
2023/04/03 09:26:29;;;;;;;2.90;1.07;;;;;;;-145.18;100.00;60484.78;4956855;28;20035;-69
2023/04/03 09:28:58;;;;;;;1.50;0.70;;;;;;;-145.18;100.00;60484.78;4952264;28;20035;-69
2023/04/03 09:31:26;;;;;;;2.27;0.80;;;;;;;-145.18;100.00;60484.78;4951847;28;20031;-69
2023/04/03 09:33:56;;;;;;;3.60;0.80;;;;;;;-145.18;100.00;60484.78;4952165;28;20404;-69
2023/04/03 09:36:47;;;;;;;3.67;1.00;;;;;;;-145.18;100.00;60484.78;4952182;28;20046;-69
2023/04/03 09:39:17;;;;;;;3.13;0.67;;;;;;;-145.18;100.00;60484.78;4952166;28;20428;-69
2023/04/03 09:41:59;;;;;;;5.00;0.90;;;;;;;-145.18;100.00;60484.78;4960055;28;21145;-69
2023/04/03 09:44:37;;;;;;;3.53;1.00;;;;;;;-145.18;100.00;60484.78;5010328;28;20033;-69
2023/04/03 09:47:26;;;;;;;3.03;0.70;;;;;;;-145.18;100.00;60484.78;5012608;28;20437;-69
2023/04/03 09:50:19;;;;;;;6.60;1.13;;;;;;;-145.18;100.00;60484.78;5012577;28;20025;-70
2023/04/03 09:52:47;;;;;;;3.23;1.10;;;;;;;-145.18;100.00;60484.78;5012576;28;20026;-69
2023/04/03 09:55:27;;;;;;;4.03;0.90;;;;;;;-145.18;100.00;60484.78;5024988;28;20037;-69
2023/04/03 09:58:07;;;;;;;3.03;1.00;;;;;;;-145.18;100.00;60484.78;5012617;28;20405;-69
2023/04/03 10:00:36;;;;;;;1.43;0.50;;;;;;;-145.18;100.00;60484.78;5010488;28;20061;-69
2023/04/03 10:03:03;;;;;;;3.37;0.87;;;;;;;-145.18;100.00;60484.78;5013412;28;20402;-69
2023/04/03 10:05:38;;;;;;;1.43;0.60;;;;;;;-145.18;100.00;60484.78;5012117;28;20049;-69
2023/04/03 10:08:35;;;;;;;2.80;0.67;;;;;;;-145.18;100.00;60484.78;5012413;28;20022;-69
2023/04/03 10:11:16;;;;;;;6.03;0.90;;;;;;;-145.18;100.00;60484.78;5004061;28;20034;-69
2023/04/03 10:13:56;;;;;;;1.40;0.60;;;;;;;-145.18;100.00;60484.78;5016238;28;20030;-69
2023/04/03 10:16:29;;;;;;;5.47;1.23;;;;;;;-145.18;100.00;60484.78;5016120;28;20032;-68
2023/04/03 10:19:13;;;;;;;3.57;0.90;;;;;;;-145.18;100.00;60484.78;5022250;28;20041;-69
2023/04/03 10:21:57;;;;;;;2.20;0.70;;;;;;;-145.18;100.00;60484.78;5027199;28;20124;-69
2023/04/03 10:24:44;;;;;;;4.97;1.10;;;;;;;-145.18;100.00;60484.78;5030497;28;20501;-69
2023/04/03 10:27:48;;;;;;;2.03;0.70;;;;;;;-145.18;100.00;60484.78;5016696;28;20051;-68
2023/04/03 10:30:41;;;;;;;1.43;0.70;;;;;;;-145.18;100.00;60484.78;5003777;28;20506;-69
2023/04/03 10:33:59;;;;;;;2.60;0.90;;;;;;;-145.18;100.00;60484.78;5007635;28;20080;-68
2023/04/03 10:37:05;;;;;;;2.27;0.80;;;;;;;-145.18;100.00;60484.78;4980663;28;20498;-68
2023/04/03 10:39:56;;;;;;;2.40;0.70;;;;;;;-145.18;100.00;60484.78;4988442;28;20461;-68
2023/04/03 10:42:52;;;;;;;1.52;0.60;;;;;;;-145.18;100.00;60484.78;4994740;28;20041;-68
2023/04/03 10:45:52;;;;;;;4.13;1.00;;;;;;;-145.18;100.00;60484.78;4970524;28;20459;-68
2023/04/03 10:48:55;;;;;;;2.50;0.70;;;;;;;-145.18;100.00;60484.78;4994535;28;20034;-68
2023/04/03 10:51:45;;;;;;;2.27;0.80;;;;;;;-145.18;100.00;60484.78;4994536;28;20093;-68
2023/04/03 10:54:39;;;;;;;3.23;1.00;;;;;;;-145.18;100.00;60484.78;4994015;28;20073;-67
2023/04/03 10:57:09;;;;;;;3.13;0.90;;;;;;;-145.18;100.00;60484.78;5001804;28;20379;-68
2023/04/03 10:59:48;;;;;;;1.67;0.80;;;;;;;-145.18;100.00;60484.78;5013785;28;20039;-68
2023/04/03 11:02:42;;;;;;;1.37;0.70;;;;;;;-145.18;100.00;60484.78;5005845;28;20088;-68
2023/04/03 11:05:18;;;;;;;2.50;0.80;;;;;;;-145.18;100.00;60484.78;4994187;28;20091;-68
2023/04/03 11:07:48;;;;;;;2.13;0.73;;;;;;;-145.18;100.00;60484.78;5015695;28;20099;-68
2023/04/03 11:10:40;;;;;;;5.10;0.97;;;;;;;-145.18;100.00;60484.78;5015888;28;20030;-68
2023/04/03 11:13:21;;;;;;;1.52;0.70;;;;;;;-145.18;100.00;60484.78;5015845;28;20385;-68
2023/04/03 11:15:46;;;;;;;2.87;0.93;;;;;;;-145.18;100.00;60484.78;5016089;28;20034;-68
2023/04/03 11:18:58;;;;;;;4.00;1.00;;;;;;;-145.18;100.00;60484.78;5016027;28;20501;-68
2023/04/03 11:21:31;;;;;;;4.10;1.00;;;;;;;-145.18;100.00;60484.78;5014238;28;20038;-68
2023/04/03 11:23:58;;;;;;;3.30;0.80;;;;;;;-145.18;100.00;60484.78;5015687;28;20065;-70
2023/04/03 11:26:29;;;;;;;2.00;0.70;;;;;;;-145.18;100.00;60484.78;5015591;28;20030;-69